createdAt,value
2019-03-27T00:00:09.423Z,82.30
2019-03-27T00:02:37.811Z,82.50
2019-03-27T00:05:06.428Z,82.10
2019-03-27T00:07:34.828Z,81.00
2019-03-27T00:10:04.459Z,83.00
2019-03-27T00:12:32.862Z,81.90
2019-03-27T00:15:12.195Z,80.80
2019-03-27T00:17:31.384Z,82.20
2019-03-27T00:19:59.772Z,81.80
2019-03-27T00:22:28.147Z,82.50
2019-03-27T00:24:56.551Z,83.00
2019-03-27T00:27:24.944Z,83.10
2019-03-27T00:29:53.332Z,82.70
2019-03-27T00:32:21.712Z,81.20
2019-03-27T00:34:50.113Z,81.50
2019-03-27T00:37:18.835Z,82.00
2019-03-27T00:39:47.491Z,81.60
2019-03-27T00:42:15.872Z,81.50
2019-03-27T00:44:44.266Z,81.90
2019-03-27T00:47:12.655Z,83.90
2019-03-27T00:49:41.044Z,82.90
2019-03-27T00:52:09.428Z,81.40
2019-03-27T00:54:37.822Z,80.70
2019-03-27T00:57:06.204Z,83.40
2019-03-27T00:59:34.602Z,84.30
2019-03-27T01:02:02.984Z,84.20
2019-03-27T01:04:31.377Z,84.30
2019-03-27T01:06:59.763Z,84.60
2019-03-27T01:09:28.163Z,84.80
2019-03-27T01:11:56.548Z,83.50
2019-03-27T01:14:24.933Z,82.40
2019-03-27T01:16:53.701Z,82.40
2019-03-27T01:19:22.127Z,85.60
2019-03-27T01:21:50.491Z,82.50
2019-03-27T01:24:18.879Z,82.20
2019-03-27T01:26:47.263Z,81.70
2019-03-27T01:29:15.649Z,82.20
2019-03-27T01:31:44.028Z,81.40
2019-03-27T01:34:12.418Z,82.70
2019-03-27T01:36:40.800Z,81.40
2019-03-27T01:39:09.212Z,81.20
2019-03-27T01:41:37.604Z,81.20
2019-03-27T01:44:05.989Z,81.50
2019-03-27T01:46:34.372Z,81.10
2019-03-27T01:49:02.777Z,81.50
2019-03-27T01:51:31.234Z,81.80
2019-03-27T01:53:59.636Z,82.20
2019-03-27T01:56:28.037Z,82.70
2019-03-27T01:58:56.425Z,82.20
2019-03-27T02:01:24.794Z,80.80
2019-03-27T02:03:53.205Z,80.90
2019-03-27T02:06:21.577Z,81.90
2019-03-27T02:08:49.977Z,81.00
2019-03-27T02:11:18.365Z,81.80
2019-03-27T02:13:46.757Z,83.30
2019-03-27T02:16:15.143Z,83.10
2019-03-27T02:18:43.532Z,84.70
2019-03-27T02:21:12.251Z,83.50
2019-03-27T02:23:40.654Z,83.90
2019-03-27T02:26:09.047Z,84.10
2019-03-27T02:28:37.435Z,85.40
2019-03-27T02:31:05.820Z,84.90
2019-03-27T02:33:34.553Z,84.50
2019-03-27T02:36:02.963Z,84.80
2019-03-27T02:38:31.429Z,84.40
2019-03-27T02:40:59.806Z,84.60
2019-03-27T02:43:28.283Z,83.90
2019-03-27T02:45:56.665Z,84.50
2019-03-27T02:48:25.076Z,82.90
2019-03-27T02:50:53.469Z,83.50
2019-03-27T02:53:21.857Z,83.80
2019-03-27T02:55:50.255Z,83.80
2019-03-27T02:58:18.652Z,83.30
2019-03-27T03:00:47.035Z,83.00
2019-03-27T03:03:15.732Z,81.70
2019-03-27T03:05:44.117Z,81.40
2019-03-27T03:08:12.526Z,82.20
2019-03-27T03:10:45.235Z,82.60
2019-03-27T03:13:11.017Z,83.50
2019-03-27T03:15:39.431Z,82.70
2019-03-27T03:18:08.057Z,85.60
2019-03-27T03:20:36.443Z,84.80
2019-03-27T03:23:04.832Z,85.10
2019-03-27T03:25:33.221Z,85.50
2019-03-27T03:28:01.605Z,84.20
2019-03-27T03:30:30.001Z,85.50
2019-03-27T03:32:58.644Z,84.00
2019-03-27T03:35:27.053Z,85.00
2019-03-27T03:37:55.438Z,85.80
2019-03-27T03:40:23.971Z,85.80
2019-03-27T03:42:52.353Z,84.30
2019-03-27T03:45:20.753Z,86.00
2019-03-27T03:47:49.435Z,86.80
2019-03-27T03:50:39.212Z,85.00
2019-03-27T03:53:09.854Z,85.90
2019-03-27T03:55:37.931Z,86.40
2019-03-27T03:58:11.657Z,85.70
2019-03-27T04:00:40.275Z,84.70
2019-03-27T04:03:08.732Z,84.80
2019-03-27T04:05:37.127Z,84.50
2019-03-27T04:08:05.966Z,86.10
2019-03-27T04:10:34.364Z,85.20
2019-03-27T04:13:02.747Z,85.00
2019-03-27T04:15:31.174Z,86.60
2019-03-27T04:17:59.606Z,87.80
2019-03-27T04:20:27.996Z,88.10
2019-03-27T04:22:56.376Z,86.10
2019-03-27T04:25:24.773Z,87.60
2019-03-27T04:27:53.424Z,86.50
2019-03-27T04:30:21.825Z,86.20
2019-03-27T04:32:50.214Z,86.70
2019-03-27T04:35:18.620Z,85.70
2019-03-27T04:37:47.026Z,87.90
2019-03-27T04:40:15.416Z,86.90
2019-03-27T04:42:43.798Z,87.60
2019-03-27T04:45:12.542Z,87.50
2019-03-27T04:47:40.917Z,86.90
2019-03-27T04:50:09.389Z,86.10
2019-03-27T04:52:37.775Z,85.80
2019-03-27T04:55:06.809Z,84.80
2019-03-27T04:57:35.194Z,86.20
2019-03-27T05:00:06.193Z,88.20
2019-03-27T05:02:34.572Z,85.90
2019-03-27T05:05:04.232Z,85.80
2019-03-27T05:07:32.935Z,87.30
2019-03-27T05:10:01.349Z,88.70
2019-03-27T05:12:29.715Z,88.20
2019-03-27T05:14:58.391Z,86.10
2019-03-27T05:17:26.778Z,87.30
2019-03-27T05:19:55.170Z,87.00
2019-03-27T05:22:23.551Z,86.90
2019-03-27T05:24:51.953Z,85.80
2019-03-27T05:27:20.594Z,86.50
2019-03-27T05:29:49.290Z,86.40
2019-03-27T05:32:17.665Z,87.20
2019-03-27T05:34:46.056Z,86.40
2019-03-27T05:37:14.435Z,87.10
2019-03-27T05:39:42.829Z,85.60
2019-03-27T05:42:11.223Z,85.00
2019-03-27T05:44:39.615Z,87.00
2019-03-27T05:47:08.005Z,85.50
2019-03-27T05:49:36.405Z,86.50
2019-03-27T05:52:04.807Z,88.10
2019-03-27T05:54:33.228Z,87.50
2019-03-27T05:57:01.622Z,86.10
2019-03-27T05:59:30.026Z,84.90
2019-03-27T06:01:58.767Z,84.90
2019-03-27T06:04:27.213Z,85.50
2019-03-27T06:06:55.588Z,86.00
2019-03-27T06:09:23.998Z,86.00
2019-03-27T06:11:52.375Z,86.00
2019-03-27T06:14:20.786Z,85.50
2019-03-27T06:16:49.156Z,85.70
2019-03-27T06:19:17.551Z,88.40
2019-03-27T06:21:45.940Z,87.10
2019-03-27T06:24:14.332Z,88.20
2019-03-27T06:26:42.713Z,87.00
2019-03-27T06:29:11.103Z,87.70
2019-03-27T06:31:39.716Z,87.60
2019-03-27T06:34:08.197Z,88.90
2019-03-27T06:36:36.588Z,89.30
2019-03-27T06:39:06.064Z,88.80
2019-03-27T06:41:34.524Z,89.00
2019-03-27T06:44:02.905Z,89.70
2019-03-27T06:46:31.295Z,90.00
2019-03-27T06:48:59.675Z,89.10
2019-03-27T06:51:39.417Z,88.00
2019-03-27T06:53:58.172Z,89.10
2019-03-27T06:56:26.570Z,89.40
2019-03-27T06:58:55.290Z,88.50
2019-03-27T07:01:23.660Z,89.40
2019-03-27T07:03:52.039Z,88.50
2019-03-27T07:06:20.725Z,88.10
2019-03-27T07:08:49.408Z,86.70
2019-03-27T07:11:17.799Z,86.90
2019-03-27T07:13:46.223Z,87.90
2019-03-27T07:16:14.594Z,85.80
2019-03-27T07:18:42.987Z,84.30
2019-03-27T07:21:11.383Z,84.20
2019-03-27T07:23:39.764Z,82.80
2019-03-27T07:26:08.204Z,81.70
2019-03-27T07:28:36.579Z,81.60
2019-03-27T07:31:04.984Z,81.80
2019-03-27T07:33:33.436Z,81.00
2019-03-27T07:36:01.830Z,80.10
2019-03-27T07:38:30.489Z,78.90
2019-03-27T07:40:58.887Z,78.40
2019-03-27T07:43:27.275Z,76.40
2019-03-27T07:45:55.687Z,74.00
2019-03-27T07:48:24.063Z,73.70
2019-03-27T07:50:52.468Z,73.60
2019-03-27T07:53:22.458Z,73.50
2019-03-27T07:55:51.136Z,70.90
2019-03-27T07:58:19.554Z,71.80
2019-03-27T08:00:47.956Z,71.60
2019-03-27T08:03:16.345Z,71.00
2019-03-27T08:05:44.735Z,71.00
2019-03-27T08:08:13.136Z,70.50
2019-03-27T08:10:41.527Z,70.70
2019-03-27T08:13:09.921Z,67.90
2019-03-27T08:15:40.819Z,66.20
2019-03-27T08:18:08.500Z,68.80
2019-03-27T08:20:36.904Z,69.10
2019-03-27T08:23:05.528Z,68.00
2019-03-27T08:25:33.923Z,65.10
2019-03-27T08:28:02.317Z,69.30
2019-03-27T08:30:30.707Z,65.60
2019-03-27T08:32:59.094Z,64.20
2019-03-27T08:35:27.483Z,63.00
2019-03-27T08:37:55.882Z,64.60
2019-03-27T08:40:24.268Z,63.40
2019-03-27T08:42:52.670Z,67.00
2019-03-27T08:45:21.088Z,63.50
2019-03-27T08:47:49.549Z,59.80
2019-03-27T08:50:18.408Z,60.70
2019-03-27T08:52:46.794Z,58.90
2019-03-27T08:55:15.329Z,58.40
2019-03-27T08:57:43.712Z,60.20
2019-03-27T09:00:13.647Z,60.20
2019-03-27T09:02:42.037Z,62.60
2019-03-27T09:05:10.768Z,62.80
2019-03-27T09:07:39.158Z,57.10
2019-03-27T09:10:10.391Z,54.90
2019-03-27T09:12:38.771Z,56.10
2019-03-27T09:15:08.772Z,55.70
2019-03-27T09:17:37.160Z,61.70
2019-03-27T09:20:07.096Z,55.60
2019-03-27T09:22:35.479Z,53.30
2019-03-27T09:25:06.278Z,56.40
2019-03-27T09:27:34.656Z,54.00
2019-03-27T09:30:03.619Z,57.60
2019-03-27T09:32:31.980Z,57.20
2019-03-27T09:35:00.511Z,56.60
2019-03-27T09:37:29.110Z,51.90
2019-03-27T09:39:57.512Z,54.10
2019-03-27T09:42:26.292Z,54.80
2019-03-27T09:44:54.739Z,51.00
2019-03-27T09:47:23.145Z,50.90
2019-03-27T09:49:51.573Z,53.80
2019-03-27T09:52:19.951Z,56.20
2019-03-27T09:54:48.337Z,51.40
2019-03-27T09:57:16.739Z,51.40
2019-03-27T09:59:45.120Z,49.80
2019-03-27T10:02:13.521Z,46.30
2019-03-27T10:04:41.917Z,48.30
2019-03-27T10:07:10.605Z,54.00
2019-03-27T10:09:41.796Z,48.20
2019-03-27T10:12:10.183Z,45.10
2019-03-27T10:14:38.573Z,46.00
2019-03-27T10:17:06.967Z,44.70
2019-03-27T10:19:35.347Z,45.30
2019-03-27T10:22:03.803Z,46.20
2019-03-27T10:24:32.225Z,44.90
2019-03-27T10:27:00.628Z,44.10
2019-03-27T10:29:29.001Z,46.50
2019-03-27T10:31:57.440Z,42.90
2019-03-27T10:34:26.067Z,41.90
2019-03-27T10:36:54.457Z,42.00
2019-03-27T10:39:22.850Z,44.00
2019-03-27T10:41:51.264Z,43.10
2019-03-27T10:44:19.621Z,43.00
2019-03-27T10:46:48.041Z,42.00
2019-03-27T10:49:16.512Z,41.40
2019-03-27T10:51:45.236Z,45.00
2019-03-27T10:54:13.660Z,49.70
2019-03-27T10:56:42.033Z,43.30
2019-03-27T10:59:10.504Z,41.00
2019-03-27T11:01:38.912Z,43.70
2019-03-27T11:04:07.379Z,47.90
2019-03-27T11:06:35.892Z,46.30
2019-03-27T11:09:07.370Z,43.20
2019-03-27T11:11:35.757Z,43.10
2019-03-27T11:14:04.555Z,44.80
2019-03-27T11:16:32.948Z,44.60
2019-03-27T11:19:01.333Z,45.70
2019-03-27T11:21:29.740Z,43.80
2019-03-27T11:23:58.148Z,42.00
2019-03-27T11:26:26.562Z,42.10
2019-03-27T11:28:55.013Z,43.50
2019-03-27T11:31:23.433Z,43.50
2019-03-27T11:33:51.816Z,49.10
2019-03-27T11:36:20.237Z,43.60
2019-03-27T11:38:48.615Z,43.00
2019-03-27T11:41:17.016Z,44.40
2019-03-27T11:43:54.652Z,44.30
2019-03-27T11:46:15.849Z,45.10
2019-03-27T11:48:44.232Z,46.60
2019-03-27T11:51:12.915Z,45.30
2019-03-27T11:53:41.303Z,48.00
2019-03-27T11:56:09.692Z,47.90
2019-03-27T11:58:38.367Z,49.50
2019-03-27T12:01:06.765Z,46.40
2019-03-27T12:03:35.153Z,47.20
2019-03-27T12:06:03.552Z,47.20
2019-03-27T12:08:32.199Z,52.90
2019-03-27T12:11:00.585Z,46.40
2019-03-27T12:13:28.981Z,48.50
2019-03-27T12:15:57.743Z,49.20
2019-03-27T12:18:26.192Z,51.10
2019-03-27T12:20:59.436Z,51.10
2019-03-27T12:23:24.692Z,49.40
2019-03-27T12:25:55.249Z,50.40
2019-03-27T12:28:23.199Z,50.10
2019-03-27T12:30:51.589Z,50.60
2019-03-27T12:33:19.990Z,50.40
2019-03-27T12:35:48.455Z,52.30
2019-03-27T12:38:16.842Z,51.30
2019-03-27T12:40:45.233Z,51.00
2019-03-27T12:43:13.619Z,49.50
2019-03-27T12:45:42.001Z,51.10
2019-03-27T12:48:10.792Z,51.00
2019-03-27T12:50:39.235Z,50.10
2019-03-27T12:53:07.645Z,49.70
2019-03-27T12:55:36.099Z,49.40
2019-03-27T12:58:04.737Z,49.70
2019-03-27T13:00:33.254Z,50.60
2019-03-27T13:03:01.663Z,50.40
2019-03-27T13:05:30.041Z,51.20
2019-03-27T13:07:58.436Z,53.10
2019-03-27T13:10:26.816Z,50.60
2019-03-27T13:12:55.212Z,54.50
2019-03-27T13:15:23.583Z,51.10
2019-03-27T13:17:51.979Z,49.80
2019-03-27T13:20:20.827Z,49.90
2019-03-27T13:22:49.219Z,62.00
2019-03-27T13:25:17.668Z,48.60
2019-03-27T13:27:47.482Z,48.10
2019-03-27T13:30:16.691Z,47.50
2019-03-27T13:32:45.140Z,47.50
2019-03-27T13:35:13.587Z,49.50
2019-03-27T13:37:41.975Z,49.50
2019-03-27T13:40:10.901Z,47.90
2019-03-27T13:42:39.295Z,47.60
2019-03-27T13:45:08.732Z,56.50
2019-03-27T13:47:37.182Z,50.20
2019-03-27T13:50:08.869Z,56.80
2019-03-27T13:52:37.260Z,51.20
2019-03-27T13:55:07.186Z,48.70
2019-03-27T13:57:36.219Z,48.40
2019-03-27T14:00:08.746Z,46.80
2019-03-27T14:02:37.448Z,48.00
2019-03-27T14:05:06.864Z,52.50
2019-03-27T14:07:35.328Z,52.90
2019-03-27T14:10:05.558Z,47.70
2019-03-27T14:12:33.954Z,52.90
2019-03-27T14:15:02.346Z,48.70
2019-03-27T14:17:30.738Z,48.70
2019-03-27T14:19:59.133Z,50.80
2019-03-27T14:22:27.520Z,52.30
2019-03-27T14:24:55.904Z,48.40
2019-03-27T14:27:24.299Z,51.20
2019-03-27T14:29:52.689Z,48.50
2019-03-27T14:32:21.085Z,48.70
2019-03-27T14:34:49.471Z,52.30
2019-03-27T14:37:17.865Z,48.20
2019-03-27T14:39:46.240Z,47.80
2019-03-27T14:42:14.639Z,49.80
2019-03-27T14:44:43.029Z,48.40
2019-03-27T14:47:11.418Z,51.20
2019-03-27T14:49:39.796Z,49.00
2019-03-27T14:52:08.763Z,47.80
2019-03-27T14:54:37.335Z,47.80
2019-03-27T14:57:05.724Z,51.70
2019-03-27T14:59:34.104Z,55.90
2019-03-27T15:02:02.513Z,54.70
2019-03-27T15:04:30.891Z,50.30
2019-03-27T15:06:59.296Z,58.30
2019-03-27T15:09:27.697Z,48.80
2019-03-27T15:11:56.503Z,48.00
2019-03-27T15:14:24.884Z,45.70
2019-03-27T15:16:53.281Z,51.60
2019-03-27T15:19:21.949Z,46.50
2019-03-27T15:21:50.329Z,49.90
2019-03-27T15:24:20.571Z,47.40
2019-03-27T15:26:48.899Z,53.30
2019-03-27T15:29:17.288Z,46.90
2019-03-27T15:31:45.668Z,47.30
2019-03-27T15:34:14.053Z,54.40
2019-03-27T15:36:42.435Z,53.10
2019-03-27T15:39:10.829Z,46.10
2019-03-27T15:41:39.216Z,53.50
2019-03-27T15:44:07.613Z,50.50
2019-03-27T15:46:36.078Z,49.30
2019-03-27T15:49:04.463Z,47.80
2019-03-27T15:51:32.849Z,49.10
2019-03-27T15:54:01.240Z,52.50
2019-03-27T15:56:29.626Z,47.00
2019-03-27T15:58:58.015Z,47.90
2019-03-27T16:01:26.397Z,49.20
2019-03-27T16:03:54.785Z,46.30
2019-03-27T16:06:23.165Z,46.80
2019-03-27T16:08:51.556Z,48.60
2019-03-27T16:11:19.937Z,57.90
2019-03-27T16:13:48.343Z,48.10
2019-03-27T16:16:16.731Z,48.00
2019-03-27T16:18:45.121Z,53.30
2019-03-27T16:21:13.502Z,48.20
2019-03-27T16:23:41.895Z,49.20
2019-03-27T16:26:10.271Z,50.00
2019-03-27T16:28:38.661Z,52.60
2019-03-27T16:31:07.114Z,50.70
2019-03-27T16:33:35.509Z,54.10
2019-03-27T16:36:03.900Z,49.80
2019-03-27T16:38:32.293Z,49.10
2019-03-27T16:41:00.951Z,50.90
2019-03-27T16:43:29.345Z,54.70
2019-03-27T16:45:57.729Z,56.80
2019-03-27T16:48:26.126Z,60.70
2019-03-27T16:50:54.509Z,54.70
2019-03-27T16:53:22.896Z,58.60
2019-03-27T16:55:51.283Z,57.30
2019-03-27T16:58:19.677Z,61.20
2019-03-27T17:00:48.065Z,53.70
2019-03-27T17:03:16.453Z,58.40
2019-03-27T17:05:54.014Z,51.80
2019-03-27T17:08:15.019Z,53.50
2019-03-27T17:10:43.391Z,52.30
2019-03-27T17:13:11.782Z,54.60
2019-03-27T17:15:40.169Z,56.20
2019-03-27T17:18:08.561Z,51.70
2019-03-27T17:20:36.940Z,53.20
2019-03-27T17:23:17.427Z,52.20
2019-03-27T17:25:35.494Z,53.20
2019-03-27T17:28:03.986Z,54.20
2019-03-27T17:30:32.365Z,52.70
2019-03-27T17:33:00.758Z,56.20
2019-03-27T17:35:29.143Z,53.00
2019-03-27T17:37:57.527Z,53.30
2019-03-27T17:40:26.139Z,54.20
2019-03-27T17:42:54.527Z,53.70
2019-03-27T17:45:22.927Z,54.10
2019-03-27T17:47:51.312Z,54.40
2019-03-27T17:50:19.701Z,55.00
2019-03-27T17:52:48.096Z,55.10
2019-03-27T17:55:16.480Z,55.00
2019-03-27T17:57:44.881Z,56.50
2019-03-27T18:00:16.141Z,55.80
2019-03-27T18:02:44.593Z,55.60
2019-03-27T18:05:13.161Z,56.30
2019-03-27T18:07:41.558Z,56.50
2019-03-27T18:10:10.087Z,56.20
2019-03-27T18:12:38.477Z,56.70
2019-03-27T18:15:08.718Z,57.40
2019-03-27T18:17:37.099Z,61.30
2019-03-27T18:20:05.826Z,57.90
2019-03-27T18:22:34.223Z,57.60
2019-03-27T18:25:02.608Z,57.70
2019-03-27T18:27:30.990Z,59.00
2019-03-27T18:29:59.384Z,58.00
2019-03-27T18:32:27.775Z,58.10
2019-03-27T18:34:56.481Z,58.30
2019-03-27T18:37:24.881Z,59.30
2019-03-27T18:39:56.315Z,58.60
2019-03-27T18:42:25.003Z,58.00
2019-03-27T18:44:54.215Z,58.40
2019-03-27T18:47:22.603Z,58.30
2019-03-27T18:49:50.992Z,58.30
2019-03-27T18:52:19.376Z,58.90
2019-03-27T18:54:47.775Z,59.60
2019-03-27T18:57:16.417Z,60.00
2019-03-27T18:59:44.800Z,59.50
2019-03-27T19:02:13.190Z,58.90
2019-03-27T19:04:41.580Z,59.60
2019-03-27T19:07:09.961Z,60.00
2019-03-27T19:09:38.366Z,59.60
2019-03-27T19:12:06.744Z,60.00
2019-03-27T19:14:35.145Z,60.20
2019-03-27T19:17:03.533Z,60.40
2019-03-27T19:19:33.290Z,60.50
2019-03-27T19:22:01.683Z,60.80
2019-03-27T19:24:30.080Z,61.00
2019-03-27T19:26:58.451Z,60.10
2019-03-27T19:29:26.924Z,61.40
2019-03-27T19:31:55.312Z,61.10
2019-03-27T19:34:23.717Z,61.00
2019-03-27T19:36:52.441Z,61.10
2019-03-27T19:39:20.828Z,61.90
2019-03-27T19:41:49.208Z,61.90
2019-03-27T19:44:17.687Z,62.00
2019-03-27T19:46:46.165Z,61.60
2019-03-27T19:49:14.854Z,61.90
2019-03-27T19:51:43.236Z,61.60
2019-03-27T19:54:11.639Z,61.70
2019-03-27T19:56:40.028Z,61.50
2019-03-27T19:59:08.432Z,61.30
2019-03-27T20:01:37.060Z,62.00
2019-03-27T20:04:05.451Z,60.60
2019-03-27T20:06:33.844Z,61.00
2019-03-27T20:09:02.244Z,61.80
2019-03-27T20:11:30.645Z,61.20
2019-03-27T20:13:59.013Z,61.90
2019-03-27T20:16:27.401Z,62.10
2019-03-27T20:18:55.793Z,63.10
2019-03-27T20:21:24.179Z,64.50
2019-03-27T20:23:52.567Z,63.60
2019-03-27T20:26:20.949Z,64.20
2019-03-27T20:28:49.337Z,65.40
2019-03-27T20:31:17.720Z,63.60
2019-03-27T20:33:46.111Z,64.40
2019-03-27T20:36:14.488Z,64.20
2019-03-27T20:38:42.897Z,63.00
2019-03-27T20:41:11.257Z,63.50
2019-03-27T20:43:39.655Z,63.30
2019-03-27T20:46:08.035Z,66.10
2019-03-27T20:48:36.496Z,64.50
2019-03-27T20:51:05.024Z,65.10
2019-03-27T20:53:33.456Z,65.40
2019-03-27T20:56:01.844Z,65.60
2019-03-27T20:58:30.233Z,65.50
2019-03-27T21:00:58.621Z,64.10
2019-03-27T21:03:27.000Z,66.80
2019-03-27T21:05:55.400Z,69.10
2019-03-27T21:08:23.787Z,68.60
2019-03-27T21:10:52.167Z,68.30
2019-03-27T21:13:20.804Z,67.70
2019-03-27T21:15:49.197Z,67.20
2019-03-27T21:18:17.588Z,66.90
2019-03-27T21:20:45.980Z,66.00
2019-03-27T21:23:14.365Z,65.40
2019-03-27T21:25:42.756Z,66.70
2019-03-27T21:28:11.140Z,67.00
2019-03-27T21:30:39.535Z,67.50
2019-03-27T21:33:07.913Z,67.30
2019-03-27T21:35:36.311Z,68.50
2019-03-27T21:38:04.760Z,67.40
2019-03-27T21:40:33.162Z,66.70
2019-03-27T21:43:01.603Z,66.80
2019-03-27T21:45:32.274Z,69.00
2019-03-27T21:48:00.091Z,69.00
2019-03-27T21:50:28.765Z,70.40
2019-03-27T21:53:00.820Z,71.20
2019-03-27T21:55:27.265Z,71.60
2019-03-27T21:57:55.954Z,71.90
2019-03-27T22:00:40.095Z,71.60
2019-03-27T22:03:09.014Z,71.70
2019-03-27T22:05:37.414Z,72.50
2019-03-27T22:08:05.779Z,72.00
2019-03-27T22:10:34.171Z,73.40
2019-03-27T22:13:02.547Z,71.30
2019-03-27T22:15:31.208Z,72.00
2019-03-27T22:17:59.575Z,70.80
2019-03-27T22:20:27.976Z,71.30
2019-03-27T22:22:56.363Z,71.90
2019-03-27T22:25:35.295Z,72.50
2019-03-27T22:27:54.855Z,73.10
2019-03-27T22:30:23.244Z,74.50
2019-03-27T22:32:51.629Z,73.00
2019-03-27T22:35:20.020Z,74.40
2019-03-27T22:37:48.394Z,72.90
2019-03-27T22:40:16.793Z,71.60
2019-03-27T22:42:45.177Z,72.90
2019-03-27T22:45:13.799Z,72.70
2019-03-27T22:47:42.179Z,75.00
2019-03-27T22:50:10.648Z,74.50
2019-03-27T22:52:39.027Z,74.80
2019-03-27T22:55:08.953Z,77.70
2019-03-27T22:57:37.332Z,77.50
2019-03-27T23:00:08.807Z,78.40
2019-03-27T23:02:37.269Z,79.20
2019-03-27T23:05:06.880Z,77.90
2019-03-27T23:07:35.257Z,78.10
2019-03-27T23:10:07.420Z,79.40
2019-03-27T23:12:35.811Z,79.70
2019-03-27T23:15:09.077Z,81.00
2019-03-27T23:17:37.448Z,81.80
2019-03-27T23:20:08.554Z,81.60
2019-03-27T23:22:36.937Z,81.30
2019-03-27T23:25:05.976Z,81.90
2019-03-27T23:27:34.364Z,79.90
2019-03-27T23:30:03.220Z,79.70
2019-03-27T23:32:31.609Z,80.50
2019-03-27T23:35:00.001Z,81.60
2019-03-27T23:37:28.372Z,81.30
2019-03-27T23:39:56.920Z,81.90
2019-03-27T23:42:25.312Z,81.40
2019-03-27T23:44:53.704Z,80.80
2019-03-27T23:47:22.092Z,81.10
2019-03-27T23:49:50.479Z,82.70
2019-03-27T23:52:18.864Z,82.70
2019-03-27T23:54:47.252Z,83.50
2019-03-27T23:57:15.654Z,83.30
2019-03-27T23:59:44.373Z,84.00
